createdAt,value
2019-06-10T00:00:32.387Z,84.08
2019-06-10T00:01:32.373Z,83.31
2019-06-10T00:02:32.414Z,83.36
2019-06-10T00:03:32.344Z,83.16
2019-06-10T00:04:32.378Z,83.54
2019-06-10T00:05:32.607Z,83.93
2019-06-10T00:06:32.377Z,83.31
2019-06-10T00:07:32.280Z,83.74
2019-06-10T00:08:32.270Z,83.93
2019-06-10T00:09:32.265Z,84.03
2019-06-10T00:10:32.234Z,84.12
2019-06-10T00:11:32.556Z,84.75
2019-06-10T00:12:32.203Z,84.70
2019-06-10T00:13:32.314Z,84.75
2019-06-10T00:14:32.199Z,84.47
2019-06-10T00:15:32.671Z,84.18
2019-06-10T00:18:41.122Z,84.37
2019-06-10T00:19:32.824Z,84.66
2019-06-10T00:22:32.068Z,85.04
2019-06-10T00:23:32.179Z,85.47
2019-06-10T00:24:32.349Z,85.04
2019-06-10T00:25:32.077Z,86.10
2019-06-10T00:27:32.398Z,85.24
2019-06-10T00:28:32.040Z,85.52
2019-06-10T00:29:32.044Z,85.42
2019-06-10T00:30:32.905Z,86.00
2019-06-10T00:31:32.265Z,85.91
2019-06-10T00:32:32.139Z,85.33
2019-06-10T00:33:31.923Z,85.04
2019-06-10T00:34:35.006Z,85.24
2019-06-10T00:36:31.865Z,85.91
2019-06-10T00:37:32.168Z,86.87
2019-06-10T00:38:32.030Z,87.01
2019-06-10T00:39:31.924Z,88.02
2019-06-10T00:40:31.828Z,88.02
2019-06-10T00:41:31.837Z,87.82
2019-06-10T00:42:31.856Z,88.31
2019-06-10T00:44:32.051Z,89.17
2019-06-10T00:45:31.846Z,89.26
2019-06-10T00:46:31.894Z,89.07
2019-06-10T00:47:31.713Z,88.59
2019-06-10T00:48:32.390Z,89.36
2019-06-10T00:49:31.790Z,88.79
2019-06-10T00:50:31.670Z,89.26
2019-06-10T00:51:31.969Z,89.55
2019-06-10T00:52:31.646Z,89.55
2019-06-10T00:53:31.814Z,89.75
2019-06-10T00:54:31.657Z,89.17
2019-06-10T00:55:31.591Z,89.17
2019-06-10T00:56:31.597Z,89.94
2019-06-10T00:57:31.584Z,89.84
2019-06-10T00:58:32.140Z,89.65
2019-06-10T00:59:31.533Z,89.46
2019-06-10T01:00:31.853Z,89.75
2019-06-10T01:01:31.590Z,89.55
2019-06-10T01:02:31.916Z,89.75
2019-06-10T01:03:31.624Z,90.03
2019-06-10T01:04:31.874Z,90.80
2019-06-10T01:05:31.877Z,90.70
2019-06-10T01:07:31.420Z,90.99
2019-06-10T01:08:31.693Z,91.38
2019-06-10T01:09:31.751Z,91.57
2019-06-10T01:10:31.683Z,91.47
2019-06-10T01:11:31.370Z,91.28
2019-06-10T01:12:31.755Z,91.76
2019-06-10T01:13:31.331Z,91.66
2019-06-10T01:14:31.975Z,91.57
2019-06-10T01:15:31.470Z,91.57
2019-06-10T01:16:31.817Z,91.62
2019-06-10T01:18:37.840Z,92.05
2019-06-10T01:19:31.601Z,91.81
2019-06-10T01:20:32.539Z,92.19
2019-06-10T01:21:31.443Z,92.48
2019-06-10T01:22:31.661Z,92.58
2019-06-10T01:23:31.219Z,92.48
2019-06-10T01:25:31.244Z,91.72
2019-06-10T01:26:31.489Z,92.19
2019-06-10T01:27:31.577Z,92.24
2019-06-10T01:28:31.537Z,92.82
2019-06-10T01:29:31.453Z,93.35
2019-06-10T01:30:31.321Z,93.01
2019-06-10T01:31:31.695Z,93.54
2019-06-10T01:32:31.916Z,93.73
2019-06-10T01:33:31.860Z,93.25
2019-06-10T01:34:31.238Z,93.35
2019-06-10T01:35:31.021Z,93.82
2019-06-10T01:36:31.464Z,93.63
2019-06-10T01:37:31.206Z,93.92
2019-06-10T01:38:31.737Z,94.21
2019-06-10T01:39:31.124Z,94.12
2019-06-10T01:40:31.447Z,94.40
2019-06-10T01:41:30.934Z,94.31
2019-06-10T01:43:31.988Z,94.49
2019-06-10T01:44:31.195Z,94.31
2019-06-10T01:45:31.302Z,94.40
2019-06-10T01:46:31.654Z,94.79
2019-06-10T01:47:31.054Z,95.36
2019-06-10T01:48:43.254Z,95.36
2019-06-10T01:49:30.962Z,94.88
2019-06-10T01:50:31.221Z,94.79
2019-06-10T01:51:31.733Z,94.88
2019-06-10T01:52:31.647Z,94.79
2019-06-10T01:53:31.431Z,95.07
2019-06-10T01:54:31.645Z,94.31
2019-06-10T01:55:31.288Z,94.98
2019-06-10T01:56:31.461Z,95.36
2019-06-10T01:57:30.893Z,94.88
2019-06-10T01:58:31.574Z,94.69
2019-06-10T01:59:31.257Z,95.17
2019-06-10T02:00:31.157Z,95.26
2019-06-10T02:01:30.772Z,95.36
2019-06-10T02:02:34.932Z,95.65
2019-06-10T02:03:31.451Z,95.84
2019-06-10T02:04:32.038Z,95.65
2019-06-10T02:06:31.655Z,95.55
2019-06-10T02:07:31.991Z,95.84
2019-06-10T02:08:31.677Z,96.32
2019-06-10T02:09:31.006Z,96.32
2019-06-10T02:10:31.068Z,96.80
2019-06-10T02:11:31.754Z,96.61
2019-06-10T02:12:31.560Z,96.70
2019-06-10T02:13:32.675Z,96.22
2019-06-10T02:14:31.775Z,96.03
2019-06-10T02:17:31.448Z,96.42
2019-06-10T02:18:31.943Z,96.61
2019-06-10T02:19:31.073Z,97.19
2019-06-10T02:20:31.779Z,97.86
2019-06-10T02:21:31.119Z,97.66
2019-06-10T02:22:31.812Z,98.72
2019-06-10T02:23:31.369Z,98.33
2019-06-10T02:24:31.571Z,99.10
2019-06-10T02:25:30.566Z,99.29
2019-06-10T02:26:30.889Z,99.20
2019-06-10T02:27:31.474Z,99.68
2019-06-10T02:28:31.648Z,99.68
2019-06-10T02:31:37.372Z,99.87
2019-06-10T02:33:35.737Z,99.29
2019-06-10T02:34:33.100Z,99.77
2019-06-10T02:35:44.019Z,99.96
2019-06-10T02:36:35.437Z,99.77
2019-06-10T02:37:32.166Z,99.99
2019-06-10T02:38:37.898Z,99.99
2019-06-10T02:39:37.547Z,99.87
2019-06-10T02:40:33.138Z,99.29
2019-06-10T02:41:35.363Z,99.96
2019-06-10T02:43:33.264Z,99.87
2019-06-10T02:44:34.313Z,99.99
2019-06-10T02:45:36.299Z,99.99
2019-06-10T02:47:33.622Z,99.99
2019-06-10T02:48:30.678Z,99.99
2019-06-10T02:49:51.479Z,99.99
2019-06-10T02:50:33.509Z,99.99
2019-06-10T02:51:31.566Z,99.99
2019-06-10T02:53:35.162Z,99.99
2019-06-10T02:54:34.796Z,99.99
2019-06-10T02:55:31.817Z,99.99
2019-06-10T02:56:34.981Z,99.99
2019-06-10T02:57:36.609Z,99.99
2019-06-10T02:58:34.187Z,99.99
2019-06-10T02:59:32.858Z,99.99
2019-06-10T03:00:42.628Z,99.99
2019-06-10T03:01:34.315Z,99.99
2019-06-10T03:02:33.074Z,99.99
2019-06-10T03:03:39.369Z,99.99
2019-06-10T03:04:32.607Z,99.99
2019-06-10T03:06:36.354Z,99.99
2019-06-10T03:07:32.647Z,99.99
2019-06-10T03:09:32.022Z,99.99
2019-06-10T03:10:33.030Z,99.99
2019-06-10T03:11:35.653Z,99.99
2019-06-10T03:12:29.878Z,99.99
2019-06-10T03:14:29.550Z,99.99
2019-06-10T03:15:29.557Z,99.99
2019-06-10T03:16:29.629Z,99.99
2019-06-10T03:17:32.148Z,99.99
2019-06-10T03:19:42.155Z,99.99
2019-06-10T03:20:29.515Z,99.99
2019-06-10T03:21:29.457Z,99.99
2019-06-10T03:22:29.435Z,99.99
2019-06-10T03:23:31.857Z,99.99
2019-06-10T03:24:29.408Z,99.99
2019-06-10T03:25:29.690Z,99.99
2019-06-10T03:26:29.369Z,99.99
2019-06-10T03:27:29.372Z,99.99
2019-06-10T03:28:29.345Z,99.99
2019-06-10T03:29:29.332Z,99.99
2019-06-10T03:30:44.212Z,99.99
2019-06-10T03:31:40.099Z,99.99
2019-06-10T03:32:35.696Z,99.99
2019-06-10T03:33:36.719Z,99.99
2019-06-10T03:34:36.204Z,99.99
2019-06-10T03:35:29.235Z,99.99
2019-06-10T03:36:29.284Z,99.99
2019-06-10T03:37:29.547Z,99.99
2019-06-10T03:38:29.206Z,99.99
2019-06-10T03:40:29.167Z,99.99
2019-06-10T03:41:29.365Z,99.99
2019-06-10T03:42:29.787Z,99.99
2019-06-10T03:43:29.179Z,99.99
2019-06-10T03:44:29.410Z,99.99
2019-06-10T03:45:29.131Z,99.99
2019-06-10T03:46:29.080Z,99.99
2019-06-10T03:47:29.063Z,99.99
2019-06-10T03:48:29.055Z,99.99
2019-06-10T03:49:29.025Z,99.99
2019-06-10T03:50:29.011Z,99.99
2019-06-10T03:51:29.318Z,99.99
2019-06-10T03:52:29.049Z,99.99
2019-06-10T03:53:28.978Z,99.99
2019-06-10T03:54:29.544Z,99.99
2019-06-10T03:55:29.164Z,99.99
2019-06-10T03:56:28.980Z,99.99
2019-06-10T03:57:29.010Z,99.99
2019-06-10T03:58:29.317Z,99.99
2019-06-10T03:59:29.621Z,99.99
2019-06-10T04:00:29.022Z,99.99
2019-06-10T04:01:30.122Z,99.99
2019-06-10T04:02:28.874Z,99.99
2019-06-10T04:03:29.365Z,99.99
2019-06-10T04:04:28.803Z,99.99
2019-06-10T04:05:29.089Z,99.99
2019-06-10T04:06:29.555Z,99.99
2019-06-10T04:07:31.231Z,99.99
2019-06-10T04:09:28.899Z,99.99
2019-06-10T04:11:31.599Z,99.99
2019-06-10T04:12:29.187Z,99.99
2019-06-10T04:13:28.667Z,99.99
2019-06-10T04:14:28.747Z,99.99
2019-06-10T04:15:29.588Z,99.99
2019-06-10T04:16:28.628Z,99.99
2019-06-10T04:17:28.868Z,99.99
2019-06-10T04:18:29.462Z,99.99
2019-06-10T04:19:28.879Z,99.99
2019-06-10T04:20:29.601Z,99.99
2019-06-10T04:21:28.550Z,99.99
2019-06-10T04:22:28.533Z,99.99
2019-06-10T04:23:28.520Z,99.99
2019-06-10T04:24:28.690Z,99.99
2019-06-10T04:27:28.585Z,99.99
2019-06-10T04:28:28.783Z,99.99
2019-06-10T04:29:29.050Z,99.99
2019-06-10T04:30:29.291Z,99.99
2019-06-10T04:31:29.696Z,99.99
2019-06-10T04:33:28.823Z,99.99
2019-06-10T04:34:30.381Z,99.99
2019-06-10T04:35:29.114Z,99.99
2019-06-10T04:36:29.402Z,99.99
2019-06-10T04:37:29.554Z,99.99
2019-06-10T04:38:29.099Z,99.99
2019-06-10T04:42:28.982Z,99.99
2019-06-10T04:43:28.923Z,99.99
2019-06-10T04:44:29.395Z,99.99
2019-06-10T04:45:29.193Z,99.99
2019-06-10T04:47:29.680Z,99.99
2019-06-10T04:50:37.245Z,99.99
2019-06-10T04:51:29.672Z,99.99
2019-06-10T04:52:29.664Z,99.99
2019-06-10T04:53:29.401Z,99.99
2019-06-10T04:54:28.679Z,99.99
2019-06-10T04:55:29.240Z,99.99
2019-06-10T04:56:29.344Z,99.99
2019-06-10T04:57:28.411Z,99.99
2019-06-10T04:58:29.127Z,99.99
2019-06-10T04:59:30.087Z,99.99
2019-06-10T05:00:29.128Z,99.99
2019-06-10T05:01:28.921Z,99.99
2019-06-10T05:03:29.519Z,99.99
2019-06-10T05:04:28.724Z,99.99
2019-06-10T05:05:28.833Z,99.99
2019-06-10T05:06:28.660Z,99.99
2019-06-10T05:07:32.044Z,99.99
2019-06-10T05:08:28.477Z,99.99
2019-06-10T05:09:29.416Z,99.99
2019-06-10T05:10:28.308Z,99.99
2019-06-10T05:11:28.934Z,99.99
2019-06-10T05:12:28.052Z,99.99
2019-06-10T05:13:28.368Z,99.99
2019-06-10T05:14:29.123Z,99.99
2019-06-10T05:15:29.867Z,99.99
2019-06-10T05:16:31.889Z,99.99
2019-06-10T05:17:30.626Z,99.99
2019-06-10T05:18:29.071Z,99.99
2019-06-10T05:19:29.085Z,99.99
2019-06-10T05:20:44.649Z,99.99
2019-06-10T05:21:29.214Z,99.99
2019-06-10T05:22:28.473Z,99.99
2019-06-10T05:23:27.980Z,99.99
2019-06-10T05:24:29.575Z,99.99
2019-06-10T05:25:28.462Z,99.99
2019-06-10T05:26:28.831Z,99.99
2019-06-10T05:27:28.593Z,99.99
2019-06-10T05:28:28.721Z,99.99
2019-06-10T05:30:29.462Z,99.99
2019-06-10T05:31:28.924Z,99.99
2019-06-10T05:33:28.614Z,99.99
2019-06-10T05:34:28.760Z,99.99
2019-06-10T05:35:28.464Z,99.99
2019-06-10T05:36:28.996Z,99.99
2019-06-10T05:37:28.230Z,99.99
2019-06-10T05:38:28.823Z,99.99
2019-06-10T05:39:28.772Z,99.99
2019-06-10T05:40:27.645Z,99.99
2019-06-10T05:41:28.967Z,99.99
2019-06-10T05:42:28.176Z,99.99
2019-06-10T05:43:27.858Z,99.99
2019-06-10T05:44:28.458Z,99.99
2019-06-10T05:45:28.797Z,99.99
2019-06-10T05:46:28.706Z,99.99
2019-06-10T05:47:28.317Z,99.99
2019-06-10T05:49:28.822Z,99.99
2019-06-10T05:51:27.895Z,99.99
2019-06-10T05:53:28.018Z,99.99
2019-06-10T05:54:27.569Z,99.99
2019-06-10T05:55:27.244Z,99.99
2019-06-10T05:56:27.232Z,99.99
2019-06-10T05:57:27.417Z,99.99
2019-06-10T05:58:27.799Z,99.99
2019-06-10T05:59:27.370Z,99.99
2019-06-10T06:00:27.543Z,99.99
2019-06-10T06:01:27.564Z,99.99
2019-06-10T06:02:27.764Z,99.99
2019-06-10T06:03:27.797Z,99.99
2019-06-10T06:04:28.042Z,99.99
2019-06-10T06:06:27.107Z,99.99
2019-06-10T06:07:27.083Z,99.99
2019-06-10T06:08:27.118Z,99.99
2019-06-10T06:09:27.192Z,99.99
2019-06-10T06:10:27.352Z,99.99
2019-06-10T06:12:27.381Z,99.99
2019-06-10T06:13:27.451Z,99.99
2019-06-10T06:14:27.535Z,99.99
2019-06-10T06:15:27.451Z,99.99
2019-06-10T06:16:27.658Z,99.99
2019-06-10T06:17:27.902Z,99.99
2019-06-10T06:18:27.895Z,99.99
2019-06-10T06:19:28.112Z,99.99
2019-06-10T06:20:27.078Z,99.99
2019-06-10T06:22:27.435Z,99.99
2019-06-10T06:23:28.544Z,99.99
2019-06-10T06:25:27.646Z,99.99
2019-06-10T06:26:28.374Z,99.99
2019-06-10T06:27:26.914Z,99.99
2019-06-10T06:28:27.940Z,99.99
2019-06-10T06:29:27.110Z,99.99
2019-06-10T06:30:27.976Z,99.99
2019-06-10T06:31:26.716Z,99.99
2019-06-10T06:32:28.514Z,99.99
2019-06-10T06:34:28.341Z,99.99
2019-06-10T06:35:26.655Z,99.99
2019-06-10T06:36:26.796Z,99.99
2019-06-10T06:37:26.864Z,99.99
2019-06-10T06:38:26.895Z,99.99
2019-06-10T06:39:27.045Z,99.99
2019-06-10T06:40:27.213Z,99.64
2019-06-10T06:41:27.424Z,99.93
2019-06-10T06:42:27.359Z,99.64
2019-06-10T06:43:28.941Z,99.93
2019-06-10T06:44:27.568Z,98.58
2019-06-10T06:45:27.603Z,98.05
2019-06-10T06:46:27.592Z,98.77
2019-06-10T06:47:27.755Z,97.14
2019-06-10T06:48:26.486Z,97.71
2019-06-10T06:49:27.830Z,98.39
2019-06-10T06:50:26.567Z,97.47
2019-06-10T06:51:40.036Z,98.44
2019-06-10T06:52:55.592Z,98.34
2019-06-10T06:53:33.172Z,98.72
2019-06-10T06:55:26.402Z,97.09
2019-06-10T06:56:26.585Z,96.17
2019-06-10T06:57:26.370Z,95.02
2019-06-10T06:58:26.348Z,94.15
2019-06-10T06:59:26.339Z,94.34
2019-06-10T07:01:26.609Z,94.97
2019-06-10T07:02:26.310Z,94.68
2019-06-10T07:03:26.291Z,94.59
2019-06-10T07:04:26.285Z,95.07
2019-06-10T07:05:26.396Z,94.20
2019-06-10T07:07:26.831Z,93.81
2019-06-10T07:08:26.776Z,94.10
2019-06-10T07:09:26.248Z,94.29
2019-06-10T07:11:26.322Z,94.29
2019-06-10T07:12:26.238Z,93.87
2019-06-10T07:13:26.266Z,94.25
2019-06-10T07:15:26.729Z,94.92
2019-06-10T07:16:28.931Z,96.46
2019-06-10T07:17:26.167Z,98.10
2019-06-10T07:18:26.413Z,98.19
2019-06-10T07:19:26.255Z,96.94
2019-06-10T07:20:26.173Z,96.12
2019-06-10T07:21:26.102Z,96.89
2019-06-10T07:22:26.470Z,97.38
2019-06-10T07:24:26.194Z,96.80
2019-06-10T07:25:26.199Z,97.96
2019-06-10T07:26:26.018Z,99.11
2019-06-10T07:27:26.101Z,98.24
2019-06-10T07:28:25.998Z,98.14
2019-06-10T07:30:26.073Z,98.82
2019-06-10T07:32:26.032Z,98.24
2019-06-10T07:33:26.021Z,97.57
2019-06-10T07:34:26.456Z,98.49
2019-06-10T07:35:26.450Z,98.77
2019-06-10T07:36:25.948Z,98.29
2019-06-10T07:37:25.995Z,97.91
2019-06-10T07:38:26.394Z,95.79
2019-06-10T07:39:25.911Z,95.74
2019-06-10T07:40:25.928Z,96.22
2019-06-10T07:41:26.244Z,96.03
2019-06-10T07:43:26.035Z,96.89
2019-06-10T07:44:27.470Z,98.15
2019-06-10T07:45:26.138Z,96.80
2019-06-10T07:46:28.980Z,96.42
2019-06-10T07:47:26.414Z,96.66
2019-06-10T07:49:26.099Z,94.96
2019-06-10T07:50:26.006Z,94.05
2019-06-10T07:51:26.717Z,92.55
2019-06-10T07:52:26.511Z,90.81
2019-06-10T07:53:27.271Z,89.79
2019-06-10T07:54:26.007Z,90.03
2019-06-10T07:55:26.475Z,88.97
2019-06-10T07:56:29.001Z,88.15
2019-06-10T07:57:27.230Z,86.79
2019-06-10T07:58:29.689Z,86.99
2019-06-10T08:02:26.456Z,88.29
2019-06-10T08:03:25.686Z,88.39
2019-06-10T08:05:27.043Z,87.62
2019-06-10T08:06:27.990Z,87.71
2019-06-10T08:07:27.599Z,87.71
2019-06-10T08:08:26.112Z,87.43
2019-06-10T08:09:26.166Z,87.67
2019-06-10T08:11:27.167Z,87.58
2019-06-10T08:12:25.562Z,87.91
2019-06-10T08:13:27.370Z,87.62
2019-06-10T08:16:25.720Z,85.15
2019-06-10T08:17:25.657Z,85.25
2019-06-10T08:18:25.967Z,85.44
2019-06-10T08:20:26.529Z,84.38
2019-06-10T08:21:26.349Z,84.42
2019-06-10T08:26:25.632Z,83.30
2019-06-10T08:27:25.493Z,82.81
2019-06-10T08:29:25.677Z,82.76
2019-06-10T08:30:27.669Z,84.31
2019-06-10T08:31:25.612Z,83.44
2019-06-10T08:32:25.704Z,81.54
2019-06-10T08:33:25.488Z,80.77
2019-06-10T08:34:25.439Z,80.57
2019-06-10T08:35:38.312Z,78.15
2019-06-10T08:36:25.310Z,80.09
2019-06-10T08:37:25.473Z,81.05
2019-06-10T08:38:25.393Z,81.00
2019-06-10T08:39:25.646Z,80.42
2019-06-10T08:40:25.639Z,80.32
2019-06-10T08:41:25.277Z,79.25
2019-06-10T08:42:25.314Z,79.74
2019-06-10T08:43:25.250Z,79.93
2019-06-10T08:44:25.254Z,80.13
2019-06-10T08:45:25.239Z,78.77
2019-06-10T08:46:25.527Z,79.25
2019-06-10T08:47:25.233Z,78.38
2019-06-10T08:48:25.206Z,78.29
2019-06-10T08:49:25.201Z,78.81
2019-06-10T08:50:25.230Z,77.55
2019-06-10T08:51:25.189Z,77.55
2019-06-10T08:52:25.202Z,76.48
2019-06-10T08:53:25.478Z,78.29
2019-06-10T08:54:25.318Z,79.06
2019-06-10T08:56:25.384Z,80.32
2019-06-10T08:58:25.200Z,80.57
2019-06-10T08:59:26.496Z,81.45
2019-06-10T09:01:25.133Z,81.12
2019-06-10T09:03:25.166Z,80.09
2019-06-10T09:05:25.231Z,80.32
2019-06-10T09:06:25.090Z,80.55
2019-06-10T09:07:26.866Z,79.00
2019-06-10T09:08:25.344Z,78.71
2019-06-10T09:09:25.396Z,78.91
2019-06-10T09:10:25.070Z,78.23
2019-06-10T09:11:25.529Z,77.65
2019-06-10T09:12:32.915Z,79.43
2019-06-10T09:13:25.058Z,78.85
2019-06-10T09:15:25.048Z,77.29
2019-06-10T09:16:25.039Z,77.43
2019-06-10T09:17:25.027Z,77.92
2019-06-10T09:18:25.695Z,76.89
2019-06-10T09:19:25.766Z,75.72
2019-06-10T09:20:26.571Z,75.34
2019-06-10T09:21:25.746Z,75.24
2019-06-10T09:22:25.144Z,73.84
2019-06-10T09:23:26.054Z,74.52
2019-06-10T09:24:25.229Z,75.98
2019-06-10T09:25:25.594Z,76.37
2019-06-10T09:28:25.337Z,77.04
2019-06-10T09:29:25.011Z,75.49
2019-06-10T09:30:24.995Z,76.69
2019-06-10T09:31:25.326Z,77.76
2019-06-10T09:32:25.718Z,77.12
2019-06-10T09:33:26.321Z,75.95
2019-06-10T09:35:24.952Z,74.88
2019-06-10T09:36:25.221Z,74.50
2019-06-10T09:38:25.292Z,73.82
2019-06-10T09:39:25.010Z,74.98
2019-06-10T09:40:24.981Z,75.57
2019-06-10T09:41:36.435Z,76.48
2019-06-10T09:42:25.451Z,75.21
2019-06-10T09:43:25.575Z,73.95
2019-06-10T09:44:25.265Z,74.63
2019-06-10T09:45:25.285Z,74.67
2019-06-10T09:47:25.017Z,74.99
2019-06-10T09:48:25.070Z,72.66
2019-06-10T09:50:24.936Z,74.12
2019-06-10T09:51:25.019Z,74.12
2019-06-10T09:52:24.948Z,74.90
2019-06-10T09:53:33.350Z,74.51
2019-06-10T09:54:25.068Z,73.34
2019-06-10T09:55:24.950Z,72.76
2019-06-10T09:56:25.598Z,72.37
2019-06-10T09:57:24.965Z,73.44
2019-06-10T09:58:25.258Z,73.38
2019-06-10T09:59:26.016Z,74.45
2019-06-10T10:00:29.342Z,72.54
2019-06-10T10:01:29.574Z,71.86
2019-06-10T10:05:24.925Z,71.82
2019-06-10T10:06:25.064Z,71.82
2019-06-10T10:07:25.700Z,73.80
2019-06-10T10:08:25.021Z,72.73
2019-06-10T10:09:25.342Z,70.78
2019-06-10T10:10:25.077Z,69.78
2019-06-10T10:11:28.518Z,71.14
2019-06-10T10:15:30.891Z,71.17
2019-06-10T10:16:25.148Z,69.62
2019-06-10T10:17:24.931Z,71.56
2019-06-10T10:18:25.139Z,72.38
2019-06-10T10:19:24.974Z,70.37
2019-06-10T10:20:25.010Z,70.76
2019-06-10T10:21:25.076Z,68.77
2019-06-10T10:22:28.726Z,68.87
2019-06-10T10:23:25.979Z,69.65
2019-06-10T10:24:27.372Z,70.33
2019-06-10T10:25:24.936Z,71.25
2019-06-10T10:26:25.062Z,67.93
2019-06-10T10:28:26.454Z,70.07
2019-06-10T10:29:25.337Z,69.39
2019-06-10T10:31:24.970Z,70.01
2019-06-10T10:32:25.003Z,68.06
2019-06-10T10:33:29.723Z,67.51
2019-06-10T10:34:25.078Z,66.24
2019-06-10T10:35:26.222Z,68.29
2019-06-10T10:36:25.005Z,66.86
2019-06-10T10:38:25.208Z,68.91
2019-06-10T10:43:32.647Z,67.15
2019-06-10T10:44:25.796Z,65.59
2019-06-10T10:45:25.575Z,64.71
2019-06-10T10:46:45.599Z,67.15
2019-06-10T10:47:27.525Z,65.69
2019-06-10T10:48:25.760Z,65.95
2019-06-10T10:49:26.031Z,66.24
2019-06-10T10:50:25.411Z,65.46
2019-06-10T10:51:26.401Z,65.46
2019-06-10T10:52:25.924Z,64.87
2019-06-10T10:54:32.773Z,67.35
2019-06-10T10:55:24.989Z,68.42
2019-06-10T10:56:25.718Z,67.87
2019-06-10T10:57:25.031Z,64.55
2019-06-10T10:58:25.010Z,65.92
2019-06-10T10:59:25.060Z,64.55
2019-06-10T11:00:25.336Z,66.31
2019-06-10T11:01:24.994Z,66.99
2019-06-10T11:02:25.039Z,66.99
2019-06-10T11:03:25.208Z,66.02
2019-06-10T11:04:25.006Z,65.66
2019-06-10T11:05:25.086Z,63.34
2019-06-10T11:06:25.700Z,64.78
2019-06-10T11:07:26.686Z,65.78
2019-06-10T11:09:25.482Z,62.59
2019-06-10T11:10:25.050Z,64.84
2019-06-10T11:11:25.031Z,64.64
2019-06-10T11:12:25.517Z,63.67
2019-06-10T11:13:25.033Z,63.21
2019-06-10T11:14:25.248Z,62.62
2019-06-10T11:15:25.179Z,62.72
2019-06-10T11:16:25.577Z,64.58
2019-06-10T11:17:25.819Z,65.30
2019-06-10T11:18:25.442Z,63.31
2019-06-10T11:19:25.158Z,63.70
2019-06-10T11:20:25.271Z,64.77
2019-06-10T11:21:25.066Z,62.72
2019-06-10T11:22:25.420Z,64.90
2019-06-10T11:23:25.073Z,63.73
2019-06-10T11:24:36.601Z,61.90
2019-06-10T11:25:25.793Z,63.66
2019-06-10T11:28:35.672Z,63.33
2019-06-10T11:29:25.097Z,62.25
2019-06-10T11:31:25.634Z,62.45
2019-06-10T11:32:26.162Z,59.58
2019-06-10T11:33:26.110Z,59.77
2019-06-10T11:34:25.482Z,60.55
2019-06-10T11:35:25.751Z,60.78
2019-06-10T11:36:25.620Z,60.85
2019-06-10T11:37:25.423Z,62.61
2019-06-10T11:38:25.747Z,61.99
2019-06-10T11:40:26.512Z,61.93
2019-06-10T11:41:26.110Z,62.09
2019-06-10T11:42:25.937Z,61.44
2019-06-10T11:43:25.555Z,61.18
2019-06-10T11:44:25.878Z,60.68
2019-06-10T11:45:25.582Z,61.47
2019-06-10T11:47:26.584Z,60.92
2019-06-10T11:48:25.345Z,60.63
2019-06-10T11:49:25.341Z,61.93
2019-06-10T11:50:25.576Z,61.27
2019-06-10T11:51:25.245Z,59.80
2019-06-10T11:52:25.381Z,61.99
2019-06-10T11:53:28.677Z,58.09
2019-06-10T11:54:25.386Z,59.17
2019-06-10T11:56:25.550Z,59.34
2019-06-10T11:57:25.336Z,60.82
2019-06-10T11:58:25.330Z,62.62
2019-06-10T11:59:25.572Z,63.64
2019-06-10T12:00:25.246Z,63.67
2019-06-10T12:01:25.241Z,63.64
2019-06-10T12:02:25.290Z,66.83
2019-06-10T12:03:25.541Z,66.31
2019-06-10T12:04:26.150Z,67.48
2019-06-10T12:05:25.287Z,67.74
2019-06-10T12:06:25.496Z,68.29
2019-06-10T12:07:25.458Z,68.35
2019-06-10T12:08:25.350Z,69.20
2019-06-10T12:09:25.330Z,69.88
2019-06-10T12:10:25.706Z,70.17
2019-06-10T12:11:25.612Z,70.76
2019-06-10T12:12:25.509Z,70.62
2019-06-10T12:13:25.738Z,69.56
2019-06-10T12:14:27.229Z,69.10
2019-06-10T12:15:28.266Z,67.80
2019-06-10T12:17:41.919Z,67.90
2019-06-10T12:18:25.815Z,69.10
2019-06-10T12:19:25.345Z,70.27
2019-06-10T12:20:28.469Z,71.37
2019-06-10T12:21:25.676Z,70.28
2019-06-10T12:22:26.284Z,67.54
2019-06-10T12:23:25.769Z,66.60
2019-06-10T12:24:25.564Z,65.09
2019-06-10T12:25:35.017Z,64.09
2019-06-10T12:26:25.546Z,65.75
2019-06-10T12:27:25.892Z,64.80
2019-06-10T12:28:25.463Z,63.46
2019-06-10T12:29:26.635Z,64.67
2019-06-10T12:30:25.432Z,64.18
2019-06-10T12:31:25.973Z,64.77
2019-06-10T12:32:25.955Z,63.24
2019-06-10T12:33:25.587Z,62.68
2019-06-10T12:34:25.329Z,61.21
2019-06-10T12:35:25.436Z,63.60
2019-06-10T12:37:25.981Z,62.48
2019-06-10T12:38:25.335Z,59.58
2019-06-10T12:39:25.280Z,62.84
2019-06-10T12:40:25.278Z,61.86
2019-06-10T12:41:25.282Z,61.10
2019-06-10T12:42:25.672Z,60.64
2019-06-10T12:43:25.819Z,60.95
2019-06-10T12:45:25.780Z,62.03
2019-06-10T12:46:25.322Z,61.94
2019-06-10T12:47:25.320Z,63.09
2019-06-10T12:48:25.369Z,65.46
2019-06-10T12:51:26.760Z,68.97
2019-06-10T12:52:26.037Z,68.87
2019-06-10T12:53:25.442Z,68.87
2019-06-10T12:54:26.174Z,69.71
2019-06-10T12:57:27.382Z,68.19
2019-06-10T12:58:26.435Z,67.50
2019-06-10T12:59:25.527Z,67.54
2019-06-10T13:00:26.504Z,71.62
2019-06-10T13:01:25.485Z,71.33
2019-06-10T13:02:31.161Z,72.08
2019-06-10T13:03:25.376Z,71.88
2019-06-10T13:04:25.782Z,70.81
2019-06-10T13:05:25.604Z,71.20
2019-06-10T13:06:25.825Z,71.75
2019-06-10T13:07:25.573Z,72.43
2019-06-10T13:08:25.422Z,74.18
2019-06-10T13:09:25.586Z,73.40
2019-06-10T13:10:25.890Z,74.18
2019-06-10T13:11:25.406Z,75.25
2019-06-10T13:12:25.558Z,74.86
2019-06-10T13:13:25.415Z,75.15
2019-06-10T13:14:25.327Z,73.30
2019-06-10T13:17:25.632Z,75.05
2019-06-10T13:18:26.479Z,75.19
2019-06-10T13:19:26.088Z,72.96
2019-06-10T13:20:26.062Z,72.19
2019-06-10T13:21:33.162Z,71.05
2019-06-10T13:22:28.468Z,71.47
2019-06-10T13:23:31.580Z,70.04
2019-06-10T13:24:25.306Z,68.06
2019-06-10T13:25:25.803Z,68.80
2019-06-10T13:26:25.639Z,70.04
2019-06-10T13:27:25.637Z,70.78
2019-06-10T13:28:25.824Z,70.46
2019-06-10T13:29:25.690Z,71.53
2019-06-10T13:30:25.735Z,71.88
2019-06-10T13:31:25.525Z,71.98
2019-06-10T13:32:25.379Z,72.04
2019-06-10T13:33:26.020Z,73.60
2019-06-10T13:34:25.492Z,72.63
2019-06-10T13:35:25.643Z,74.18
2019-06-10T13:37:25.392Z,74.38
2019-06-10T13:38:25.928Z,75.15
2019-06-10T13:39:27.672Z,75.80
2019-06-10T13:40:25.685Z,74.92
2019-06-10T13:41:25.204Z,75.31
2019-06-10T13:43:26.796Z,74.54
2019-06-10T13:44:25.376Z,75.51
2019-06-10T13:45:25.653Z,75.99
2019-06-10T13:46:36.925Z,75.89
2019-06-10T13:47:26.128Z,76.48
2019-06-10T13:48:27.186Z,76.32
2019-06-10T13:49:25.672Z,75.58
2019-06-10T13:50:25.870Z,73.61
2019-06-10T13:55:25.187Z,70.86
2019-06-10T13:56:43.083Z,70.63
2019-06-10T13:57:25.378Z,67.68
2019-06-10T13:58:25.321Z,65.36
2019-06-10T13:59:25.459Z,64.84
2019-06-10T14:00:40.459Z,65.91
2019-06-10T14:03:25.565Z,64.97
2019-06-10T14:04:25.817Z,65.33
2019-06-10T14:05:25.095Z,67.25
2019-06-10T14:06:39.550Z,66.37
2019-06-10T14:07:26.175Z,65.46
2019-06-10T14:08:25.272Z,64.71
2019-06-10T14:09:25.194Z,64.81
2019-06-10T14:10:25.334Z,63.67
2019-06-10T14:11:28.430Z,64.94
2019-06-10T14:12:25.066Z,65.56
2019-06-10T14:13:25.200Z,65.17
2019-06-10T14:14:25.004Z,65.53
2019-06-10T14:15:25.117Z,67.54
2019-06-10T14:16:24.999Z,66.17
2019-06-10T14:17:25.431Z,66.76
2019-06-10T14:18:25.064Z,65.63
2019-06-10T14:19:24.992Z,66.83
2019-06-10T14:20:25.228Z,65.59
2019-06-10T14:21:26.455Z,65.33
2019-06-10T14:23:25.293Z,65.88
2019-06-10T14:24:25.036Z,66.47
2019-06-10T14:25:25.089Z,65.17
2019-06-10T14:26:36.673Z,67.57
2019-06-10T14:27:25.660Z,66.86
2019-06-10T14:28:39.879Z,66.14
2019-06-10T14:29:26.280Z,67.15
2019-06-10T14:30:25.040Z,68.19
2019-06-10T14:32:25.943Z,69.07
2019-06-10T14:33:26.109Z,69.03
2019-06-10T14:34:24.983Z,68.74
2019-06-10T14:35:26.917Z,70.65
2019-06-10T14:36:25.029Z,70.85
2019-06-10T14:37:35.779Z,72.31
2019-06-10T14:38:24.956Z,72.50
2019-06-10T14:39:25.114Z,70.65
2019-06-10T14:40:25.475Z,70.26
2019-06-10T14:41:25.970Z,70.88
2019-06-10T14:42:25.435Z,72.05
2019-06-10T14:44:24.971Z,70.82
2019-06-10T14:46:25.398Z,69.98
2019-06-10T14:47:26.173Z,67.50
2019-06-10T14:48:24.879Z,67.35
2019-06-10T14:49:24.951Z,68.38
2019-06-10T14:50:24.948Z,71.70
2019-06-10T14:51:25.031Z,70.10
2019-06-10T14:52:24.986Z,70.78
2019-06-10T14:53:25.316Z,70.88
2019-06-10T14:56:25.214Z,70.17
2019-06-10T14:57:25.336Z,69.00
2019-06-10T14:58:25.223Z,68.71